sensor_id;sensor_type;location;lat;lon;timestamp;P1;durP1;ratioP1;P2;durP2;ratioP2
8716;SDS011;4395;48.554;8.820;2023-09-30T00:01:08;6.70;;;3.53;;
8716;SDS011;4395;48.554;8.820;2023-09-30T00:03:12;7.17;;;4.17;;
8716;SDS011;4395;48.554;8.820;2023-09-30T00:05:15;5.63;;;3.33;;
8716;SDS011;4395;48.554;8.820;2023-09-30T00:07:21;6.03;;;3.50;;
8716;SDS011;4395;48.554;8.820;2023-09-30T00:09:24;7.33;;;3.93;;
8716;SDS011;4395;48.554;8.820;2023-09-30T00:11:27;7.47;;;3.87;;
8716;SDS011;4395;48.554;8.820;2023-09-30T00:13:29;6.53;;;3.47;;
8716;SDS011;4395;48.554;8.820;2023-09-30T00:15:34;7.57;;;4.17;;
8716;SDS011;4395;48.554;8.820;2023-09-30T00:17:37;5.80;;;3.80;;
8716;SDS011;4395;48.554;8.820;2023-09-30T00:19:40;6.80;;;4.03;;
8716;SDS011;4395;48.554;8.820;2023-09-30T00:21:43;6.70;;;3.93;;
8716;SDS011;4395;48.554;8.820;2023-09-30T00:23:46;6.37;;;3.50;;
8716;SDS011;4395;48.554;8.820;2023-09-30T00:25:49;6.93;;;3.90;;
8716;SDS011;4395;48.554;8.820;2023-09-30T00:27:52;7.10;;;3.80;;
8716;SDS011;4395;48.554;8.820;2023-09-30T00:29:55;6.27;;;3.90;;
8716;SDS011;4395;48.554;8.820;2023-09-30T00:31:59;7.40;;;3.70;;
8716;SDS011;4395;48.554;8.820;2023-09-30T00:34:02;6.53;;;3.97;;
8716;SDS011;4395;48.554;8.820;2023-09-30T00:36:06;5.57;;;3.87;;
8716;SDS011;4395;48.554;8.820;2023-09-30T00:38:10;7.10;;;3.40;;
8716;SDS011;4395;48.554;8.820;2023-09-30T00:40:13;5.50;;;3.20;;
8716;SDS011;4395;48.554;8.820;2023-09-30T00:42:16;5.43;;;3.30;;
8716;SDS011;4395;48.554;8.820;2023-09-30T00:44:19;7.20;;;3.67;;
8716;SDS011;4395;48.554;8.820;2023-09-30T00:46:25;6.10;;;3.43;;
8716;SDS011;4395;48.554;8.820;2023-09-30T00:48:33;5.40;;;3.43;;
8716;SDS011;4395;48.554;8.820;2023-09-30T00:50:37;6.27;;;3.23;;
8716;SDS011;4395;48.554;8.820;2023-09-30T00:52:41;5.73;;;3.07;;
8716;SDS011;4395;48.554;8.820;2023-09-30T00:54:46;5.07;;;3.20;;
8716;SDS011;4395;48.554;8.820;2023-09-30T00:56:51;7.53;;;3.40;;
8716;SDS011;4395;48.554;8.820;2023-09-30T00:58:57;5.50;;;3.07;;
8716;SDS011;4395;48.554;8.820;2023-09-30T01:01:01;5.77;;;3.37;;
8716;SDS011;4395;48.554;8.820;2023-09-30T01:03:03;5.70;;;3.33;;
8716;SDS011;4395;48.554;8.820;2023-09-30T01:05:08;6.10;;;3.43;;
8716;SDS011;4395;48.554;8.820;2023-09-30T01:07:11;6.47;;;3.20;;
8716;SDS011;4395;48.554;8.820;2023-09-30T01:09:14;4.77;;;2.97;;
8716;SDS011;4395;48.554;8.820;2023-09-30T01:11:17;6.43;;;3.53;;
8716;SDS011;4395;48.554;8.820;2023-09-30T01:13:20;6.10;;;3.47;;
8716;SDS011;4395;48.554;8.820;2023-09-30T01:15:23;5.10;;;3.30;;
8716;SDS011;4395;48.554;8.820;2023-09-30T01:17:25;6.87;;;3.77;;
8716;SDS011;4395;48.554;8.820;2023-09-30T01:19:30;7.30;;;4.00;;
8716;SDS011;4395;48.554;8.820;2023-09-30T01:21:35;6.07;;;3.47;;
8716;SDS011;4395;48.554;8.820;2023-09-30T01:23:38;7.33;;;4.07;;
8716;SDS011;4395;48.554;8.820;2023-09-30T01:25:41;8.20;;;4.20;;
8716;SDS011;4395;48.554;8.820;2023-09-30T01:27:45;8.77;;;3.73;;
8716;SDS011;4395;48.554;8.820;2023-09-30T01:29:49;7.47;;;3.90;;
8716;SDS011;4395;48.554;8.820;2023-09-30T01:31:52;6.17;;;3.53;;
8716;SDS011;4395;48.554;8.820;2023-09-30T01:33:56;7.47;;;4.10;;
8716;SDS011;4395;48.554;8.820;2023-09-30T01:35:59;6.00;;;3.63;;
8716;SDS011;4395;48.554;8.820;2023-09-30T01:38:03;6.90;;;3.60;;
8716;SDS011;4395;48.554;8.820;2023-09-30T01:40:07;6.27;;;3.80;;
8716;SDS011;4395;48.554;8.820;2023-09-30T01:42:13;7.30;;;3.90;;
8716;SDS011;4395;48.554;8.820;2023-09-30T01:44:15;6.00;;;3.63;;
8716;SDS011;4395;48.554;8.820;2023-09-30T01:46:17;7.23;;;3.47;;
8716;SDS011;4395;48.554;8.820;2023-09-30T01:48:20;6.53;;;3.30;;
8716;SDS011;4395;48.554;8.820;2023-09-30T01:50:23;7.30;;;3.70;;
8716;SDS011;4395;48.554;8.820;2023-09-30T01:52:26;4.90;;;3.13;;
8716;SDS011;4395;48.554;8.820;2023-09-30T01:54:30;9.47;;;5.80;;
8716;SDS011;4395;48.554;8.820;2023-09-30T01:56:33;6.43;;;4.20;;
8716;SDS011;4395;48.554;8.820;2023-09-30T01:58:36;6.00;;;3.90;;
8716;SDS011;4395;48.554;8.820;2023-09-30T02:00:37;6.40;;;3.90;;
8716;SDS011;4395;48.554;8.820;2023-09-30T02:02:41;5.40;;;3.47;;
8716;SDS011;4395;48.554;8.820;2023-09-30T02:04:44;6.33;;;3.40;;
8716;SDS011;4395;48.554;8.820;2023-09-30T02:06:46;5.50;;;3.37;;
8716;SDS011;4395;48.554;8.820;2023-09-30T02:08:49;5.10;;;3.40;;
8716;SDS011;4395;48.554;8.820;2023-09-30T02:10:53;5.30;;;3.30;;
8716;SDS011;4395;48.554;8.820;2023-09-30T02:12:56;5.30;;;3.60;;
8716;SDS011;4395;48.554;8.820;2023-09-30T02:15:02;6.63;;;3.63;;
8716;SDS011;4395;48.554;8.820;2023-09-30T02:17:06;4.97;;;3.20;;
8716;SDS011;4395;48.554;8.820;2023-09-30T02:19:09;5.23;;;3.27;;
8716;SDS011;4395;48.554;8.820;2023-09-30T02:21:12;4.73;;;3.27;;
8716;SDS011;4395;48.554;8.820;2023-09-30T02:23:15;5.50;;;3.40;;
8716;SDS011;4395;48.554;8.820;2023-09-30T02:25:19;4.67;;;2.93;;
8716;SDS011;4395;48.554;8.820;2023-09-30T02:27:23;4.80;;;2.80;;
8716;SDS011;4395;48.554;8.820;2023-09-30T02:29:26;5.57;;;3.37;;
8716;SDS011;4395;48.554;8.820;2023-09-30T02:31:29;5.70;;;3.20;;
8716;SDS011;4395;48.554;8.820;2023-09-30T02:33:32;5.23;;;3.23;;
8716;SDS011;4395;48.554;8.820;2023-09-30T02:35:36;5.43;;;3.37;;
8716;SDS011;4395;48.554;8.820;2023-09-30T02:37:40;5.93;;;3.23;;
8716;SDS011;4395;48.554;8.820;2023-09-30T02:39:45;4.87;;;3.00;;
8716;SDS011;4395;48.554;8.820;2023-09-30T02:41:48;6.60;;;3.33;;
8716;SDS011;4395;48.554;8.820;2023-09-30T02:43:53;5.60;;;3.13;;
8716;SDS011;4395;48.554;8.820;2023-09-30T02:45:57;5.90;;;3.17;;
8716;SDS011;4395;48.554;8.820;2023-09-30T02:48:00;5.33;;;3.03;;
8716;SDS011;4395;48.554;8.820;2023-09-30T02:50:04;5.07;;;3.53;;
8716;SDS011;4395;48.554;8.820;2023-09-30T02:52:13;5.33;;;2.97;;
8716;SDS011;4395;48.554;8.820;2023-09-30T02:54:15;5.13;;;2.67;;
8716;SDS011;4395;48.554;8.820;2023-09-30T02:56:19;5.77;;;3.10;;
8716;SDS011;4395;48.554;8.820;2023-09-30T02:58:22;5.50;;;3.23;;
8716;SDS011;4395;48.554;8.820;2023-09-30T03:00:26;4.90;;;3.10;;
8716;SDS011;4395;48.554;8.820;2023-09-30T03:02:36;5.63;;;2.87;;
8716;SDS011;4395;48.554;8.820;2023-09-30T03:04:40;5.47;;;3.20;;
8716;SDS011;4395;48.554;8.820;2023-09-30T03:06:44;5.57;;;3.20;;
8716;SDS011;4395;48.554;8.820;2023-09-30T03:08:47;5.13;;;3.27;;
8716;SDS011;4395;48.554;8.820;2023-09-30T03:10:49;4.27;;;2.80;;
8716;SDS011;4395;48.554;8.820;2023-09-30T03:12:52;6.27;;;3.30;;
8716;SDS011;4395;48.554;8.820;2023-09-30T03:14:55;4.97;;;3.20;;
8716;SDS011;4395;48.554;8.820;2023-09-30T03:16:59;4.73;;;2.83;;
8716;SDS011;4395;48.554;8.820;2023-09-30T03:19:02;4.90;;;3.17;;
8716;SDS011;4395;48.554;8.820;2023-09-30T03:21:13;5.07;;;2.83;;
8716;SDS011;4395;48.554;8.820;2023-09-30T03:23:17;5.07;;;3.30;;
8716;SDS011;4395;48.554;8.820;2023-09-30T03:25:21;4.30;;;3.20;;
8716;SDS011;4395;48.554;8.820;2023-09-30T03:27:24;6.03;;;3.17;;
8716;SDS011;4395;48.554;8.820;2023-09-30T03:29:27;6.00;;;3.27;;
8716;SDS011;4395;48.554;8.820;2023-09-30T03:31:29;4.80;;;3.03;;
8716;SDS011;4395;48.554;8.820;2023-09-30T03:33:35;4.43;;;3.00;;
8716;SDS011;4395;48.554;8.820;2023-09-30T03:35:37;6.03;;;3.03;;
8716;SDS011;4395;48.554;8.820;2023-09-30T03:37:41;4.60;;;3.20;;
8716;SDS011;4395;48.554;8.820;2023-09-30T03:39:48;9.03;;;6.47;;
8716;SDS011;4395;48.554;8.820;2023-09-30T03:41:50;6.43;;;4.37;;
8716;SDS011;4395;48.554;8.820;2023-09-30T03:43:55;7.40;;;4.30;;
8716;SDS011;4395;48.554;8.820;2023-09-30T03:45:58;4.97;;;3.33;;
8716;SDS011;4395;48.554;8.820;2023-09-30T03:48:02;6.93;;;3.70;;
8716;SDS011;4395;48.554;8.820;2023-09-30T03:50:07;5.73;;;3.17;;
8716;SDS011;4395;48.554;8.820;2023-09-30T03:52:15;5.70;;;3.37;;
8716;SDS011;4395;48.554;8.820;2023-09-30T03:54:19;6.23;;;4.47;;
8716;SDS011;4395;48.554;8.820;2023-09-30T03:56:22;5.17;;;3.27;;
8716;SDS011;4395;48.554;8.820;2023-09-30T03:58:25;5.40;;;3.60;;
8716;SDS011;4395;48.554;8.820;2023-09-30T04:00:28;5.43;;;3.43;;
8716;SDS011;4395;48.554;8.820;2023-09-30T04:02:30;3.80;;;3.00;;
8716;SDS011;4395;48.554;8.820;2023-09-30T04:04:33;4.87;;;3.80;;
8716;SDS011;4395;48.554;8.820;2023-09-30T04:06:39;5.30;;;3.57;;
8716;SDS011;4395;48.554;8.820;2023-09-30T04:08:42;3.80;;;2.93;;
8716;SDS011;4395;48.554;8.820;2023-09-30T04:10:45;5.00;;;3.00;;
8716;SDS011;4395;48.554;8.820;2023-09-30T04:12:48;5.40;;;3.63;;
8716;SDS011;4395;48.554;8.820;2023-09-30T04:14:51;4.97;;;3.53;;
8716;SDS011;4395;48.554;8.820;2023-09-30T04:16:54;5.47;;;3.33;;
8716;SDS011;4395;48.554;8.820;2023-09-30T04:18:57;4.50;;;3.30;;
8716;SDS011;4395;48.554;8.820;2023-09-30T04:21:00;3.77;;;3.07;;
8716;SDS011;4395;48.554;8.820;2023-09-30T04:23:04;4.03;;;3.30;;
8716;SDS011;4395;48.554;8.820;2023-09-30T04:25:08;5.67;;;3.70;;
8716;SDS011;4395;48.554;8.820;2023-09-30T04:27:12;5.27;;;3.03;;
8716;SDS011;4395;48.554;8.820;2023-09-30T04:29:15;4.87;;;3.20;;
8716;SDS011;4395;48.554;8.820;2023-09-30T04:31:17;4.83;;;3.53;;
8716;SDS011;4395;48.554;8.820;2023-09-30T04:33:20;5.87;;;3.30;;
8716;SDS011;4395;48.554;8.820;2023-09-30T04:35:26;5.20;;;3.23;;
8716;SDS011;4395;48.554;8.820;2023-09-30T04:37:28;5.10;;;3.40;;
8716;SDS011;4395;48.554;8.820;2023-09-30T04:39:32;6.00;;;3.30;;
8716;SDS011;4395;48.554;8.820;2023-09-30T04:41:37;4.93;;;3.50;;
8716;SDS011;4395;48.554;8.820;2023-09-30T04:43:42;4.53;;;2.80;;
8716;SDS011;4395;48.554;8.820;2023-09-30T04:45:45;5.27;;;3.00;;
8716;SDS011;4395;48.554;8.820;2023-09-30T04:47:51;6.87;;;3.47;;
8716;SDS011;4395;48.554;8.820;2023-09-30T04:49:54;7.23;;;3.63;;
8716;SDS011;4395;48.554;8.820;2023-09-30T04:51:59;3.93;;;3.03;;
8716;SDS011;4395;48.554;8.820;2023-09-30T04:54:02;7.27;;;3.60;;
8716;SDS011;4395;48.554;8.820;2023-09-30T04:56:09;6.67;;;3.20;;
8716;SDS011;4395;48.554;8.820;2023-09-30T04:58:12;5.53;;;3.53;;
8716;SDS011;4395;48.554;8.820;2023-09-30T05:00:15;4.47;;;3.10;;
8716;SDS011;4395;48.554;8.820;2023-09-30T05:02:20;5.00;;;3.30;;
8716;SDS011;4395;48.554;8.820;2023-09-30T05:04:22;5.07;;;3.50;;
8716;SDS011;4395;48.554;8.820;2023-09-30T05:06:27;4.90;;;3.30;;
8716;SDS011;4395;48.554;8.820;2023-09-30T05:08:30;4.77;;;3.20;;
8716;SDS011;4395;48.554;8.820;2023-09-30T05:10:32;4.13;;;2.97;;
8716;SDS011;4395;48.554;8.820;2023-09-30T05:12:36;5.23;;;3.20;;
8716;SDS011;4395;48.554;8.820;2023-09-30T05:14:39;7.67;;;6.53;;
8716;SDS011;4395;48.554;8.820;2023-09-30T05:16:42;14.60;;;13.27;;
8716;SDS011;4395;48.554;8.820;2023-09-30T05:18:46;10.13;;;9.13;;
8716;SDS011;4395;48.554;8.820;2023-09-30T05:20:49;7.80;;;6.80;;
8716;SDS011;4395;48.554;8.820;2023-09-30T05:22:52;6.70;;;5.60;;
8716;SDS011;4395;48.554;8.820;2023-09-30T05:24:55;7.00;;;5.83;;
8716;SDS011;4395;48.554;8.820;2023-09-30T05:26:58;11.87;;;9.53;;
8716;SDS011;4395;48.554;8.820;2023-09-30T05:29:02;8.17;;;6.60;;
8716;SDS011;4395;48.554;8.820;2023-09-30T05:31:05;5.80;;;4.70;;
8716;SDS011;4395;48.554;8.820;2023-09-30T05:33:09;4.33;;;3.93;;
8716;SDS011;4395;48.554;8.820;2023-09-30T05:35:15;6.47;;;3.93;;
8716;SDS011;4395;48.554;8.820;2023-09-30T05:37:20;5.50;;;4.13;;
8716;SDS011;4395;48.554;8.820;2023-09-30T05:39:23;5.20;;;3.93;;
8716;SDS011;4395;48.554;8.820;2023-09-30T05:41:26;4.73;;;3.63;;
8716;SDS011;4395;48.554;8.820;2023-09-30T05:43:29;5.17;;;3.83;;
8716;SDS011;4395;48.554;8.820;2023-09-30T05:45:33;7.70;;;5.13;;
8716;SDS011;4395;48.554;8.820;2023-09-30T05:47:36;5.80;;;4.10;;
8716;SDS011;4395;48.554;8.820;2023-09-30T05:49:38;7.77;;;4.33;;
8716;SDS011;4395;48.554;8.820;2023-09-30T05:51:42;4.87;;;3.33;;
8716;SDS011;4395;48.554;8.820;2023-09-30T05:53:45;5.07;;;3.93;;
8716;SDS011;4395;48.554;8.820;2023-09-30T05:55:49;6.27;;;3.67;;
8716;SDS011;4395;48.554;8.820;2023-09-30T05:57:52;5.00;;;3.20;;
8716;SDS011;4395;48.554;8.820;2023-09-30T05:59:54;4.97;;;3.40;;
8716;SDS011;4395;48.554;8.820;2023-09-30T06:01:58;4.93;;;3.03;;
8716;SDS011;4395;48.554;8.820;2023-09-30T06:04:01;5.03;;;3.17;;
8716;SDS011;4395;48.554;8.820;2023-09-30T06:06:10;4.07;;;3.20;;
8716;SDS011;4395;48.554;8.820;2023-09-30T06:08:13;5.30;;;3.67;;
8716;SDS011;4395;48.554;8.820;2023-09-30T06:10:16;5.20;;;3.37;;
8716;SDS011;4395;48.554;8.820;2023-09-30T06:12:20;4.90;;;3.60;;
8716;SDS011;4395;48.554;8.820;2023-09-30T06:14:23;4.37;;;3.20;;
8716;SDS011;4395;48.554;8.820;2023-09-30T06:16:29;7.07;;;3.73;;
8716;SDS011;4395;48.554;8.820;2023-09-30T06:18:34;5.23;;;3.50;;
8716;SDS011;4395;48.554;8.820;2023-09-30T06:20:37;6.00;;;3.60;;
8716;SDS011;4395;48.554;8.820;2023-09-30T06:22:40;4.60;;;3.60;;
8716;SDS011;4395;48.554;8.820;2023-09-30T06:24:42;6.30;;;3.80;;
8716;SDS011;4395;48.554;8.820;2023-09-30T06:26:45;5.10;;;3.33;;
8716;SDS011;4395;48.554;8.820;2023-09-30T06:28:50;4.60;;;3.50;;
8716;SDS011;4395;48.554;8.820;2023-09-30T06:30:55;4.67;;;3.87;;
8716;SDS011;4395;48.554;8.820;2023-09-30T06:32:59;5.27;;;3.87;;
8716;SDS011;4395;48.554;8.820;2023-09-30T06:35:04;5.53;;;3.63;;
8716;SDS011;4395;48.554;8.820;2023-09-30T06:37:09;8.30;;;4.00;;
8716;SDS011;4395;48.554;8.820;2023-09-30T06:39:11;6.93;;;3.90;;
8716;SDS011;4395;48.554;8.820;2023-09-30T06:41:17;5.67;;;3.70;;
8716;SDS011;4395;48.554;8.820;2023-09-30T06:43:21;4.63;;;3.60;;
8716;SDS011;4395;48.554;8.820;2023-09-30T06:45:24;5.50;;;4.20;;
8716;SDS011;4395;48.554;8.820;2023-09-30T06:47:27;7.37;;;4.40;;
8716;SDS011;4395;48.554;8.820;2023-09-30T06:49:33;7.10;;;4.20;;
8716;SDS011;4395;48.554;8.820;2023-09-30T06:51:37;6.03;;;3.80;;
8716;SDS011;4395;48.554;8.820;2023-09-30T06:53:40;5.33;;;3.77;;
8716;SDS011;4395;48.554;8.820;2023-09-30T06:55:43;6.20;;;4.03;;
8716;SDS011;4395;48.554;8.820;2023-09-30T06:57:45;5.53;;;3.70;;
8716;SDS011;4395;48.554;8.820;2023-09-30T06:59:48;5.07;;;3.97;;
8716;SDS011;4395;48.554;8.820;2023-09-30T07:01:51;4.90;;;3.70;;
8716;SDS011;4395;48.554;8.820;2023-09-30T07:03:54;5.70;;;4.20;;
8716;SDS011;4395;48.554;8.820;2023-09-30T07:05:57;5.07;;;3.53;;
8716;SDS011;4395;48.554;8.820;2023-09-30T07:08:03;6.37;;;4.47;;
8716;SDS011;4395;48.554;8.820;2023-09-30T07:10:07;6.57;;;4.30;;
8716;SDS011;4395;48.554;8.820;2023-09-30T07:12:10;6.47;;;4.20;;
8716;SDS011;4395;48.554;8.820;2023-09-30T07:14:13;6.67;;;3.80;;
8716;SDS011;4395;48.554;8.820;2023-09-30T07:16:16;5.17;;;3.90;;
8716;SDS011;4395;48.554;8.820;2023-09-30T07:18:19;5.53;;;4.17;;
8716;SDS011;4395;48.554;8.820;2023-09-30T07:20:22;6.03;;;3.67;;
8716;SDS011;4395;48.554;8.820;2023-09-30T07:22:25;4.80;;;3.50;;
8716;SDS011;4395;48.554;8.820;2023-09-30T07:24:49;7.03;;;3.90;;
8716;SDS011;4395;48.554;8.820;2023-09-30T07:26:52;5.80;;;3.80;;
8716;SDS011;4395;48.554;8.820;2023-09-30T07:28:55;4.93;;;4.27;;
8716;SDS011;4395;48.554;8.820;2023-09-30T07:30:59;5.97;;;4.40;;
8716;SDS011;4395;48.554;8.820;2023-09-30T07:33:02;5.03;;;4.10;;
8716;SDS011;4395;48.554;8.820;2023-09-30T07:35:06;6.20;;;4.13;;
8716;SDS011;4395;48.554;8.820;2023-09-30T07:37:10;9.33;;;4.57;;
8716;SDS011;4395;48.554;8.820;2023-09-30T07:39:11;5.57;;;4.00;;
8716;SDS011;4395;48.554;8.820;2023-09-30T07:41:16;5.37;;;4.20;;
8716;SDS011;4395;48.554;8.820;2023-09-30T07:43:19;6.70;;;4.23;;
8716;SDS011;4395;48.554;8.820;2023-09-30T07:45:22;5.97;;;3.83;;
8716;SDS011;4395;48.554;8.820;2023-09-30T07:47:25;6.70;;;3.70;;
8716;SDS011;4395;48.554;8.820;2023-09-30T07:49:27;5.03;;;3.90;;
8716;SDS011;4395;48.554;8.820;2023-09-30T07:51:30;7.07;;;4.20;;
8716;SDS011;4395;48.554;8.820;2023-09-30T07:53:33;5.77;;;3.67;;
8716;SDS011;4395;48.554;8.820;2023-09-30T07:55:35;7.90;;;3.90;;
8716;SDS011;4395;48.554;8.820;2023-09-30T07:57:39;6.47;;;4.13;;
8716;SDS011;4395;48.554;8.820;2023-09-30T07:59:44;6.07;;;3.70;;
8716;SDS011;4395;48.554;8.820;2023-09-30T08:01:47;5.23;;;4.40;;
8716;SDS011;4395;48.554;8.820;2023-09-30T08:03:50;4.40;;;3.77;;
8716;SDS011;4395;48.554;8.820;2023-09-30T08:05:53;6.17;;;3.87;;
8716;SDS011;4395;48.554;8.820;2023-09-30T08:07:56;6.30;;;3.63;;
8716;SDS011;4395;48.554;8.820;2023-09-30T08:09:59;6.07;;;3.57;;
8716;SDS011;4395;48.554;8.820;2023-09-30T08:12:02;6.60;;;3.67;;
8716;SDS011;4395;48.554;8.820;2023-09-30T08:14:07;4.53;;;3.30;;
8716;SDS011;4395;48.554;8.820;2023-09-30T08:16:10;7.17;;;3.93;;
8716;SDS011;4395;48.554;8.820;2023-09-30T08:18:13;6.87;;;4.20;;
8716;SDS011;4395;48.554;8.820;2023-09-30T08:20:16;7.27;;;4.27;;
8716;SDS011;4395;48.554;8.820;2023-09-30T08:22:18;8.07;;;4.70;;
8716;SDS011;4395;48.554;8.820;2023-09-30T08:24:21;6.30;;;4.40;;
8716;SDS011;4395;48.554;8.820;2023-09-30T08:26:24;5.33;;;4.37;;
8716;SDS011;4395;48.554;8.820;2023-09-30T08:28:26;4.87;;;4.10;;
8716;SDS011;4395;48.554;8.820;2023-09-30T08:30:32;6.20;;;4.40;;
8716;SDS011;4395;48.554;8.820;2023-09-30T08:32:35;6.77;;;4.70;;
8716;SDS011;4395;48.554;8.820;2023-09-30T08:34:38;8.33;;;4.40;;
8716;SDS011;4395;48.554;8.820;2023-09-30T08:36:41;4.73;;;4.03;;
8716;SDS011;4395;48.554;8.820;2023-09-30T08:38:44;6.87;;;4.50;;
8716;SDS011;4395;48.554;8.820;2023-09-30T08:40:49;6.47;;;3.87;;
8716;SDS011;4395;48.554;8.820;2023-09-30T08:42:54;6.63;;;4.30;;
8716;SDS011;4395;48.554;8.820;2023-09-30T08:44:57;6.47;;;4.37;;
8716;SDS011;4395;48.554;8.820;2023-09-30T08:47:02;6.87;;;5.07;;
8716;SDS011;4395;48.554;8.820;2023-09-30T08:49:05;6.17;;;4.30;;
8716;SDS011;4395;48.554;8.820;2023-09-30T08:51:07;6.63;;;4.60;;
8716;SDS011;4395;48.554;8.820;2023-09-30T08:53:10;8.60;;;4.73;;
8716;SDS011;4395;48.554;8.820;2023-09-30T08:55:15;6.00;;;4.40;;
8716;SDS011;4395;48.554;8.820;2023-09-30T08:57:18;5.33;;;4.20;;
8716;SDS011;4395;48.554;8.820;2023-09-30T08:59:20;6.43;;;4.50;;
8716;SDS011;4395;48.554;8.820;2023-09-30T09:01:24;6.93;;;4.90;;
8716;SDS011;4395;48.554;8.820;2023-09-30T09:03:29;7.30;;;4.70;;
8716;SDS011;4395;48.554;8.820;2023-09-30T09:05:33;9.70;;;4.73;;
8716;SDS011;4395;48.554;8.820;2023-09-30T09:07:36;6.40;;;4.93;;
8716;SDS011;4395;48.554;8.820;2023-09-30T09:09:38;7.00;;;4.57;;
8716;SDS011;4395;48.554;8.820;2023-09-30T09:11:41;5.23;;;4.40;;
8716;SDS011;4395;48.554;8.820;2023-09-30T09:13:47;6.83;;;4.97;;
8716;SDS011;4395;48.554;8.820;2023-09-30T09:16:05;8.37;;;4.53;;
8716;SDS011;4395;48.554;8.820;2023-09-30T09:18:09;8.93;;;5.37;;
8716;SDS011;4395;48.554;8.820;2023-09-30T09:20:17;8.07;;;5.07;;
8716;SDS011;4395;48.554;8.820;2023-09-30T09:22:22;7.63;;;5.40;;
8716;SDS011;4395;48.554;8.820;2023-09-30T09:24:28;6.37;;;5.13;;
8716;SDS011;4395;48.554;8.820;2023-09-30T09:26:32;7.37;;;4.87;;
8716;SDS011;4395;48.554;8.820;2023-09-30T09:28:36;7.87;;;5.20;;
8716;SDS011;4395;48.554;8.820;2023-09-30T09:30:41;6.67;;;4.77;;
8716;SDS011;4395;48.554;8.820;2023-09-30T09:35:12;7.83;;;4.73;;
8716;SDS011;4395;48.554;8.820;2023-09-30T09:37:15;11.27;;;4.80;;
8716;SDS011;4395;48.554;8.820;2023-09-30T09:39:20;6.67;;;4.73;;
8716;SDS011;4395;48.554;8.820;2023-09-30T09:41:31;8.17;;;4.83;;
8716;SDS011;4395;48.554;8.820;2023-09-30T09:43:34;6.97;;;4.37;;
8716;SDS011;4395;48.554;8.820;2023-09-30T09:45:39;7.30;;;4.93;;
8716;SDS011;4395;48.554;8.820;2023-09-30T09:47:42;8.27;;;4.83;;
8716;SDS011;4395;48.554;8.820;2023-09-30T09:49:44;7.30;;;5.17;;
8716;SDS011;4395;48.554;8.820;2023-09-30T09:51:48;7.60;;;5.00;;
8716;SDS011;4395;48.554;8.820;2023-09-30T09:53:53;7.50;;;4.97;;
8716;SDS011;4395;48.554;8.820;2023-09-30T09:55:56;10.13;;;5.53;;
8716;SDS011;4395;48.554;8.820;2023-09-30T09:58:02;6.80;;;5.03;;
8716;SDS011;4395;48.554;8.820;2023-09-30T10:00:07;11.00;;;5.00;;
8716;SDS011;4395;48.554;8.820;2023-09-30T10:02:15;10.40;;;5.30;;
8716;SDS011;4395;48.554;8.820;2023-09-30T10:04:19;7.57;;;5.47;;
8716;SDS011;4395;48.554;8.820;2023-09-30T10:06:22;9.17;;;5.23;;
8716;SDS011;4395;48.554;8.820;2023-09-30T10:08:29;9.13;;;5.20;;
8716;SDS011;4395;48.554;8.820;2023-09-30T10:10:37;7.87;;;5.60;;
8716;SDS011;4395;48.554;8.820;2023-09-30T10:12:41;8.93;;;6.37;;
8716;SDS011;4395;48.554;8.820;2023-09-30T10:14:44;8.07;;;5.33;;
8716;SDS011;4395;48.554;8.820;2023-09-30T10:16:47;6.47;;;5.30;;
8716;SDS011;4395;48.554;8.820;2023-09-30T10:19:06;6.87;;;5.10;;
8716;SDS011;4395;48.554;8.820;2023-09-30T10:21:10;6.00;;;5.10;;
8716;SDS011;4395;48.554;8.820;2023-09-30T10:23:23;10.80;;;5.83;;
8716;SDS011;4395;48.554;8.820;2023-09-30T10:25:34;9.40;;;5.07;;
8716;SDS011;4395;48.554;8.820;2023-09-30T10:27:39;8.83;;;5.53;;
8716;SDS011;4395;48.554;8.820;2023-09-30T10:29:45;10.57;;;5.50;;
8716;SDS011;4395;48.554;8.820;2023-09-30T10:31:50;10.60;;;5.50;;
8716;SDS011;4395;48.554;8.820;2023-09-30T10:36:25;7.07;;;5.10;;
8716;SDS011;4395;48.554;8.820;2023-09-30T10:38:36;8.33;;;5.33;;
8716;SDS011;4395;48.554;8.820;2023-09-30T10:40:41;9.43;;;5.87;;
8716;SDS011;4395;48.554;8.820;2023-09-30T10:42:48;6.13;;;5.00;;
8716;SDS011;4395;48.554;8.820;2023-09-30T10:44:56;7.10;;;5.17;;
8716;SDS011;4395;48.554;8.820;2023-09-30T10:46:59;7.40;;;5.30;;
8716;SDS011;4395;48.554;8.820;2023-09-30T10:49:31;8.47;;;5.43;;
8716;SDS011;4395;48.554;8.820;2023-09-30T10:51:34;8.30;;;5.60;;
8716;SDS011;4395;48.554;8.820;2023-09-30T10:53:41;9.07;;;5.83;;
8716;SDS011;4395;48.554;8.820;2023-09-30T10:55:46;10.13;;;5.67;;
8716;SDS011;4395;48.554;8.820;2023-09-30T10:57:58;10.13;;;5.57;;
8716;SDS011;4395;48.554;8.820;2023-09-30T11:00:07;8.27;;;5.13;;
8716;SDS011;4395;48.554;8.820;2023-09-30T11:02:18;8.77;;;5.47;;
8716;SDS011;4395;48.554;8.820;2023-09-30T11:04:22;11.03;;;5.60;;
8716;SDS011;4395;48.554;8.820;2023-09-30T11:06:25;7.93;;;5.50;;
8716;SDS011;4395;48.554;8.820;2023-09-30T11:08:28;9.13;;;5.83;;
8716;SDS011;4395;48.554;8.820;2023-09-30T11:10:31;11.83;;;5.93;;
8716;SDS011;4395;48.554;8.820;2023-09-30T11:12:34;9.73;;;6.80;;
8716;SDS011;4395;48.554;8.820;2023-09-30T11:14:38;9.63;;;6.23;;
8716;SDS011;4395;48.554;8.820;2023-09-30T11:16:42;9.47;;;6.43;;
8716;SDS011;4395;48.554;8.820;2023-09-30T11:18:45;9.50;;;5.90;;
8716;SDS011;4395;48.554;8.820;2023-09-30T11:20:49;9.80;;;6.53;;
8716;SDS011;4395;48.554;8.820;2023-09-30T11:22:51;9.33;;;5.83;;
8716;SDS011;4395;48.554;8.820;2023-09-30T11:24:53;10.67;;;6.30;;
8716;SDS011;4395;48.554;8.820;2023-09-30T11:26:58;8.97;;;5.97;;
8716;SDS011;4395;48.554;8.820;2023-09-30T11:29:07;9.53;;;6.43;;
8716;SDS011;4395;48.554;8.820;2023-09-30T11:31:12;10.20;;;6.53;;
8716;SDS011;4395;48.554;8.820;2023-09-30T11:33:16;9.97;;;6.10;;
8716;SDS011;4395;48.554;8.820;2023-09-30T11:35:22;9.23;;;6.00;;
8716;SDS011;4395;48.554;8.820;2023-09-30T11:37:30;9.00;;;5.67;;
8716;SDS011;4395;48.554;8.820;2023-09-30T11:39:34;8.60;;;5.67;;
8716;SDS011;4395;48.554;8.820;2023-09-30T11:41:38;11.70;;;6.03;;
8716;SDS011;4395;48.554;8.820;2023-09-30T11:43:57;9.23;;;5.83;;
8716;SDS011;4395;48.554;8.820;2023-09-30T11:46:04;9.70;;;6.40;;
8716;SDS011;4395;48.554;8.820;2023-09-30T11:48:20;11.77;;;7.27;;
8716;SDS011;4395;48.554;8.820;2023-09-30T11:50:23;12.07;;;7.87;;
8716;SDS011;4395;48.554;8.820;2023-09-30T11:52:26;9.83;;;6.20;;
8716;SDS011;4395;48.554;8.820;2023-09-30T11:54:30;11.13;;;7.30;;
8716;SDS011;4395;48.554;8.820;2023-09-30T11:56:34;8.20;;;5.93;;
8716;SDS011;4395;48.554;8.820;2023-09-30T11:58:37;9.50;;;6.00;;
8716;SDS011;4395;48.554;8.820;2023-09-30T12:00:40;8.80;;;5.70;;
8716;SDS011;4395;48.554;8.820;2023-09-30T12:02:43;8.10;;;5.73;;
8716;SDS011;4395;48.554;8.820;2023-09-30T12:04:47;9.80;;;5.73;;
8716;SDS011;4395;48.554;8.820;2023-09-30T12:06:51;8.93;;;6.50;;
8716;SDS011;4395;48.554;8.820;2023-09-30T12:08:54;8.70;;;5.33;;
8716;SDS011;4395;48.554;8.820;2023-09-30T12:10:57;7.70;;;5.50;;
8716;SDS011;4395;48.554;8.820;2023-09-30T12:13:02;7.70;;;5.80;;
8716;SDS011;4395;48.554;8.820;2023-09-30T12:15:05;9.23;;;5.97;;
8716;SDS011;4395;48.554;8.820;2023-09-30T12:17:10;9.13;;;6.00;;
8716;SDS011;4395;48.554;8.820;2023-09-30T12:19:15;8.30;;;5.73;;
8716;SDS011;4395;48.554;8.820;2023-09-30T12:21:20;9.27;;;5.70;;
8716;SDS011;4395;48.554;8.820;2023-09-30T12:23:24;8.77;;;5.67;;
8716;SDS011;4395;48.554;8.820;2023-09-30T12:25:27;8.50;;;5.67;;
8716;SDS011;4395;48.554;8.820;2023-09-30T12:27:31;8.87;;;5.87;;
8716;SDS011;4395;48.554;8.820;2023-09-30T12:29:33;7.77;;;5.77;;
8716;SDS011;4395;48.554;8.820;2023-09-30T12:31:39;9.20;;;6.07;;
8716;SDS011;4395;48.554;8.820;2023-09-30T12:33:53;9.03;;;6.40;;
8716;SDS011;4395;48.554;8.820;2023-09-30T12:35:56;11.37;;;5.40;;
8716;SDS011;4395;48.554;8.820;2023-09-30T12:38:00;8.43;;;6.13;;
8716;SDS011;4395;48.554;8.820;2023-09-30T12:40:03;8.90;;;6.20;;
8716;SDS011;4395;48.554;8.820;2023-09-30T12:42:08;8.87;;;6.20;;
8716;SDS011;4395;48.554;8.820;2023-09-30T12:44:13;8.60;;;6.13;;
8716;SDS011;4395;48.554;8.820;2023-09-30T12:46:16;9.40;;;6.17;;
8716;SDS011;4395;48.554;8.820;2023-09-30T12:48:19;9.70;;;6.30;;
8716;SDS011;4395;48.554;8.820;2023-09-30T12:50:22;8.17;;;5.97;;
8716;SDS011;4395;48.554;8.820;2023-09-30T12:52:25;8.53;;;5.90;;
8716;SDS011;4395;48.554;8.820;2023-09-30T12:54:29;9.90;;;6.63;;
8716;SDS011;4395;48.554;8.820;2023-09-30T12:56:32;9.17;;;5.93;;